Time;durP1;ratioP1;P1;durP2;ratioP2;P2;SDS_P1;SDS_P2;PMS_P1;PMS_P2;Temp;Humidity;BMP_temperature;BMP_pressure;BME280_temperature;BME280_humidity;BME280_pressure;Samples;Min_cycle;Max_cycle;Signal;HPM_P1;HPM_P2
2021/06/29 00:02:00;;;;;;;17.70;7.82;;;18.40;99.90;;;;;;5028564;28;20525;-67
2021/06/29 00:04:27;;;;;;;13.38;6.68;;;18.50;99.90;;;;;;5028835;28;20113;-67
2021/06/29 00:06:56;;;;;;;22.40;7.97;;;18.40;99.90;;;;;;5023554;28;20051;-67
2021/06/29 00:09:23;;;;;;;15.43;8.00;;;18.50;99.90;;;;;;5026824;28;20086;-67
2021/06/29 00:11:50;;;;;;;17.90;8.93;;;18.50;99.90;;;;;;5026172;28;20124;-66
2021/06/29 00:14:17;;;;;;;16.52;7.97;;;18.60;99.90;;;;;;5036051;28;20170;-67
2021/06/29 00:16:44;;;;;;;14.57;8.38;;;18.70;99.90;;;;;;5021148;28;20067;-66
2021/06/29 00:19:11;;;;;;;16.98;9.70;;;18.70;99.90;;;;;;5030902;28;20070;-66
2021/06/29 00:21:38;;;;;;;21.42;9.55;;;18.80;99.90;;;;;;5032219;28;20056;-67
2021/06/29 00:24:08;;;;;;;12.80;8.23;;;18.70;99.90;;;;;;5038343;28;20156;-67
2021/06/29 00:26:35;;;;;;;16.77;8.80;;;18.70;99.90;;;;;;5035054;28;20060;-67
2021/06/29 00:29:02;;;;;;;22.38;9.63;;;18.70;99.90;;;;;;5009208;28;21007;-67
2021/06/29 00:31:29;;;;;;;16.45;7.90;;;18.70;99.90;;;;;;5022943;28;20043;-67
2021/06/29 00:33:56;;;;;;;16.98;7.72;;;18.70;99.90;;;;;;5032747;28;20082;-67
2021/06/29 00:36:23;;;;;;;20.13;8.70;;;18.60;99.90;;;;;;5036111;28;20468;-67
2021/06/29 00:38:50;;;;;;;20.00;8.75;;;18.70;99.90;;;;;;5018820;28;21625;-67
2021/06/29 00:41:18;;;;;;;15.40;8.70;;;18.70;99.90;;;;;;5037995;28;20052;-67
2021/06/29 00:43:47;;;;;;;14.93;8.25;;;18.60;99.90;;;;;;5016472;28;20510;-67
2021/06/29 00:46:14;;;;;;;19.83;7.65;;;18.70;99.90;;;;;;5030370;28;20048;-68
2021/06/29 00:48:41;;;;;;;11.02;6.45;;;18.50;99.90;;;;;;5029286;28;21251;-68
2021/06/29 00:51:08;;;;;;;12.30;6.53;;;18.50;99.90;;;;;;5029120;28;20070;-67
2021/06/29 00:53:37;;;;;;;12.73;7.78;;;18.50;99.90;;;;;;5031508;28;20144;-67
2021/06/29 00:56:06;;;;;;;19.42;8.98;;;18.50;99.90;;;;;;5036146;28;20053;-67
2021/06/29 00:58:34;;;;;;;15.98;8.13;;;18.50;99.90;;;;;;5020083;28;20579;-67
2021/06/29 01:01:01;;;;;;;13.80;7.60;;;18.50;99.90;;;;;;5023417;28;20110;-67
2021/06/29 01:03:28;;;;;;;12.40;6.45;;;18.50;99.90;;;;;;5024180;28;20131;-67
2021/06/29 01:05:55;;;;;;;10.68;6.15;;;18.50;99.90;;;;;;5037487;28;20080;-67
2021/06/29 01:08:22;;;;;;;12.23;6.80;;;18.40;99.90;;;;;;5017955;28;20197;-67
2021/06/29 01:10:49;;;;;;;13.10;7.78;;;18.40;99.90;;;;;;5017698;28;20098;-67
2021/06/29 01:13:31;;;;;;;13.25;7.20;;;18.40;99.90;;;;;;5025045;28;20701;-66
2021/06/29 01:16:02;;;;;;;11.63;6.32;;;18.40;99.90;;;;;;5036992;28;20966;-67
2021/06/29 01:18:29;;;;;;;11.10;7.20;;;18.50;99.90;;;;;;5025115;28;20063;-67
2021/06/29 01:20:58;;;;;;;10.48;6.13;;;18.50;99.90;;;;;;5041668;28;20508;-67
2021/06/29 01:23:28;;;;;;;9.85;5.53;;;18.40;99.90;;;;;;5013260;28;20090;-66
2021/06/29 01:26:08;;;;;;;11.75;6.93;;;18.60;99.90;;;;;;5025017;28;20052;-67
2021/06/29 01:28:43;;;;;;;10.30;5.55;;;18.60;99.90;;;;;;5036291;28;20075;-67
2021/06/29 01:31:14;;;;;;;7.88;5.13;;;18.50;99.90;;;;;;5043253;28;20449;-67
2021/06/29 01:33:42;;;;;;;12.07;6.03;;;18.40;99.90;;;;;;5017661;28;20066;-67
2021/06/29 01:36:11;;;;;;;11.05;6.22;;;18.50;99.90;;;;;;5022361;28;20072;-67
2021/06/29 01:38:37;;;;;;;11.27;5.70;;;18.40;99.90;;;;;;5023886;28;20079;-67
2021/06/29 01:41:05;;;;;;;9.43;5.97;;;18.50;99.90;;;;;;5023609;28;20157;-67
2021/06/29 01:43:35;;;;;;;12.38;6.72;;;18.40;99.90;;;;;;5020067;28;20056;-67
2021/06/29 01:46:02;;;;;;;9.27;5.97;;;18.40;99.90;;;;;;5021338;28;20404;-67
2021/06/29 01:48:29;;;;;;;11.50;5.93;;;18.50;99.90;;;;;;5051771;28;20060;-66
2021/06/29 01:50:57;;;;;;;8.27;5.35;;;18.40;99.90;;;;;;5050045;28;20059;-67
2021/06/29 01:53:26;;;;;;;10.27;6.53;;;18.40;99.90;;;;;;5048107;28;20126;-66
2021/06/29 01:55:53;;;;;;;16.17;9.00;;;18.40;99.90;;;;;;5046810;28;20060;-67
2021/06/29 01:58:24;;;;;;;17.90;9.90;;;18.30;99.90;;;;;;5050814;28;20109;-67
2021/06/29 02:00:51;;;;;;;16.10;8.55;;;18.40;99.90;;;;;;5049694;28;20059;-67
2021/06/29 02:03:18;;;;;;;13.85;7.13;;;18.50;99.90;;;;;;5049493;28;20101;-66
2021/06/29 02:05:46;;;;;;;12.52;6.80;;;18.50;99.90;;;;;;5050936;28;20052;-66
2021/06/29 02:08:13;;;;;;;13.07;7.40;;;18.50;99.90;;;;;;5045021;28;20109;-66
2021/06/29 02:10:41;;;;;;;11.63;6.57;;;18.50;99.90;;;;;;5049118;28;20501;-67
2021/06/29 02:13:08;;;;;;;17.23;7.50;;;18.50;99.90;;;;;;5046998;28;20432;-66
2021/06/29 02:15:36;;;;;;;10.45;5.72;;;18.50;99.90;;;;;;5049413;28;20052;-66
2021/06/29 02:18:03;;;;;;;9.85;6.15;;;18.30;99.90;;;;;;5048072;28;20229;-67
2021/06/29 02:20:30;;;;;;;10.82;6.55;;;18.40;99.90;;;;;;5044636;28;20500;-66
2021/06/29 02:22:57;;;;;;;9.48;5.95;;;18.40;99.90;;;;;;5044265;28;20462;-67
2021/06/29 02:25:25;;;;;;;7.72;4.60;;;18.30;99.90;;;;;;5031678;28;20052;-66
2021/06/29 02:27:53;;;;;;;7.43;4.60;;;18.30;99.90;;;;;;5026583;28;20055;-67
2021/06/29 02:30:21;;;;;;;8.50;5.10;;;18.30;99.90;;;;;;4997107;28;20055;-66
2021/06/29 02:32:48;;;;;;;7.10;4.22;;;18.30;99.90;;;;;;5025178;28;20048;-66
2021/06/29 02:35:15;;;;;;;7.95;4.50;;;18.30;99.90;;;;;;5016169;28;20557;-67
2021/06/29 02:37:42;;;;;;;11.27;4.93;;;18.30;99.90;;;;;;5017272;28;20501;-66
2021/06/29 02:40:11;;;;;;;7.53;4.40;;;18.30;99.90;;;;;;5028221;28;20122;-66
2021/06/29 02:42:39;;;;;;;9.00;4.68;;;18.30;99.90;;;;;;5013979;28;20052;-66
2021/06/29 02:45:09;;;;;;;9.00;4.07;;;18.40;99.90;;;;;;5033636;28;20052;-66
2021/06/29 02:47:36;;;;;;;8.32;4.78;;;18.50;99.90;;;;;;5019263;28;20045;-66
2021/06/29 02:50:05;;;;;;;8.10;4.88;;;18.40;99.90;;;;;;5018496;28;20068;-66
2021/06/29 02:52:32;;;;;;;7.75;5.43;;;18.30;99.90;;;;;;5010698;28;20050;-66
2021/06/29 02:55:00;;;;;;;12.40;5.43;;;18.30;99.90;;;;;;5033917;28;20059;-66
2021/06/29 02:57:27;;;;;;;8.32;4.65;;;18.30;99.90;;;;;;5019842;28;20076;-67
2021/06/29 02:59:54;;;;;;;7.85;4.65;;;18.30;99.90;;;;;;5024752;28;20052;-66
2021/06/29 03:02:23;;;;;;;9.05;4.78;;;18.20;99.90;;;;;;5008157;28;20764;-66
2021/06/29 03:04:50;;;;;;;10.57;4.90;;;18.30;99.90;;;;;;5033763;28;20055;-67
2021/06/29 03:07:17;;;;;;;7.68;4.60;;;18.30;99.90;;;;;;5017278;28;20052;-66
2021/06/29 03:09:44;;;;;;;6.47;4.07;;;18.20;99.90;;;;;;5033441;28;20296;-66
2021/06/29 03:12:12;;;;;;;10.02;4.85;;;18.20;99.90;;;;;;5041839;28;20133;-66
2021/06/29 03:14:40;;;;;;;8.60;5.47;;;18.30;99.90;;;;;;5024174;28;20044;-66
2021/06/29 03:17:08;;;;;;;11.40;5.20;;;18.30;99.90;;;;;;5008017;28;20064;-66
2021/06/29 03:19:37;;;;;;;9.95;5.68;;;18.20;99.90;;;;;;5041055;28;20052;-66
2021/06/29 03:22:06;;;;;;;10.50;5.75;;;18.10;99.90;;;;;;5028211;28;20055;-67
2021/06/29 03:24:33;;;;;;;10.38;6.35;;;18.10;99.90;;;;;;5023429;28;20144;-66
2021/06/29 03:27:04;;;;;;;10.45;5.72;;;18.20;99.90;;;;;;5036554;28;20052;-66
2021/06/29 03:29:31;;;;;;;11.15;5.55;;;18.20;99.90;;;;;;5031756;28;20044;-66
2021/06/29 03:31:59;;;;;;;10.77;5.75;;;18.20;99.90;;;;;;5032704;28;20055;-66
2021/06/29 03:34:26;;;;;;;9.65;5.78;;;18.10;99.90;;;;;;5028525;28;20048;-66
2021/06/29 03:36:54;;;;;;;11.38;6.80;;;18.10;99.90;;;;;;5032900;28;20110;-66
2021/06/29 03:39:21;;;;;;;9.70;6.80;;;18.20;99.90;;;;;;5028134;28;20063;-66
2021/06/29 03:41:48;;;;;;;10.90;6.70;;;18.10;99.90;;;;;;5026171;28;20826;-66
2021/06/29 03:44:15;;;;;;;11.10;7.47;;;18.00;99.90;;;;;;5029640;28;20052;-66
2021/06/29 03:46:42;;;;;;;13.70;8.85;;;18.10;99.90;;;;;;5025609;28;20509;-66
2021/06/29 03:49:10;;;;;;;11.55;7.18;;;18.10;99.90;;;;;;5026606;28;20051;-66
2021/06/29 03:51:38;;;;;;;15.10;7.53;;;18.20;99.90;;;;;;5033048;28;20518;-66
2021/06/29 03:54:08;;;;;;;12.18;8.02;;;18.10;99.90;;;;;;5034513;28;20253;-66
2021/06/29 03:56:35;;;;;;;14.48;8.07;;;18.30;99.90;;;;;;5039445;28;21028;-66
2021/06/29 03:59:05;;;;;;;10.80;7.65;;;18.20;99.90;;;;;;5027587;28;20052;-66
2021/06/29 04:01:32;;;;;;;12.30;7.97;;;18.30;99.90;;;;;;5027476;28;20048;-67
2021/06/29 04:04:00;;;;;;;12.05;7.93;;;18.20;99.90;;;;;;5031592;28;20055;-66
2021/06/29 04:06:29;;;;;;;12.98;7.43;;;18.20;99.90;;;;;;5036276;28;20113;-66
2021/06/29 04:08:58;;;;;;;10.93;7.25;;;18.20;99.90;;;;;;5025020;28;20052;-66
2021/06/29 04:11:28;;;;;;;10.32;7.57;;;18.10;99.90;;;;;;4995597;28;21261;-66
2021/06/29 04:13:56;;;;;;;12.77;8.52;;;18.10;99.90;;;;;;4972582;28;20067;-66
2021/06/29 04:16:23;;;;;;;18.50;9.13;;;17.90;99.90;;;;;;4973168;28;20060;-66
2021/06/29 04:18:50;;;;;;;10.75;8.18;;;18.10;99.90;;;;;;4960392;28;20052;-66
2021/06/29 04:21:18;;;;;;;13.50;8.10;;;18.20;99.90;;;;;;4959034;28;20078;-66
2021/06/29 04:23:45;;;;;;;13.52;8.63;;;18.10;99.90;;;;;;4970183;28;20059;-66
2021/06/29 04:26:16;;;;;;;24.63;9.25;;;18.20;99.90;;;;;;4961424;28;20048;-66
2021/06/29 04:28:45;;;;;;;16.00;8.43;;;18.20;99.90;;;;;;4959107;28;20056;-66
2021/06/29 04:31:12;;;;;;;12.88;8.40;;;18.20;99.90;;;;;;4958334;28;20138;-67
2021/06/29 04:33:39;;;;;;;12.88;7.93;;;18.30;99.90;;;;;;4961948;28;20055;-66
2021/06/29 04:36:07;;;;;;;12.75;8.10;;;18.30;99.90;;;;;;4962798;28;20048;-67
2021/06/29 04:38:34;;;;;;;11.90;8.32;;;18.30;99.90;;;;;;4964352;28;20052;-66
2021/06/29 04:41:01;;;;;;;13.68;8.13;;;18.30;99.90;;;;;;4969269;28;20444;-66
2021/06/29 04:43:29;;;;;;;20.30;10.10;;;18.40;99.90;;;;;;4965907;28;20493;-66
2021/06/29 04:45:58;;;;;;;17.13;8.80;;;18.50;99.90;;;;;;4969588;28;20047;-66
2021/06/29 04:48:25;;;;;;;13.00;8.52;;;18.50;99.90;;;;;;4956769;28;20055;-67
2021/06/29 04:50:53;;;;;;;17.10;8.73;;;18.60;99.90;;;;;;5022900;28;20097;-66
2021/06/29 04:53:20;;;;;;;15.93;10.00;;;18.60;99.90;;;;;;5030514;28;20063;-66
2021/06/29 04:55:47;;;;;;;15.77;10.25;;;18.50;99.90;;;;;;4980774;28;20097;-66
2021/06/29 04:58:14;;;;;;;12.80;9.25;;;18.50;99.90;;;;;;4965766;28;21146;-66
2021/06/29 05:00:44;;;;;;;13.27;9.15;;;18.70;99.90;;;;;;4959669;28;21157;-66
2021/06/29 05:03:13;;;;;;;13.35;8.60;;;18.60;99.90;;;;;;4969023;28;20405;-66
2021/06/29 05:05:41;;;;;;;11.38;8.50;;;18.60;99.90;;;;;;4975999;28;20044;-66
2021/06/29 05:08:08;;;;;;;11.77;8.48;;;18.50;99.90;;;;;;4974601;28;20048;-66
2021/06/29 05:10:35;;;;;;;15.95;9.10;;;18.50;99.90;;;;;;4977400;28;20075;-69
2021/06/29 05:13:06;;;;;;;10.77;7.97;;;18.50;99.90;;;;;;4980335;28;20063;-69
2021/06/29 05:15:39;;;;;;;12.27;7.97;;;18.50;99.90;;;;;;5062002;28;20239;-68
2021/06/29 05:18:07;;;;;;;12.05;8.43;;;18.40;99.90;;;;;;5061604;28;20052;-69
2021/06/29 05:20:36;;;;;;;13.45;8.73;;;18.40;99.90;;;;;;4987066;28;20339;-70
2021/06/29 05:23:02;;;;;;;13.35;8.20;;;18.50;99.90;;;;;;4968352;28;20056;-67
2021/06/29 05:25:31;;;;;;;10.57;7.13;;;18.50;99.90;;;;;;4964354;28;20064;-67
2021/06/29 05:27:58;;;;;;;9.55;7.43;;;18.70;99.90;;;;;;4970747;28;20170;-67
2021/06/29 05:30:25;;;;;;;16.25;8.23;;;18.60;99.90;;;;;;4992624;28;20062;-67
2021/06/29 05:32:53;;;;;;;9.93;7.65;;;18.60;99.90;;;;;;4987092;28;20688;-67
2021/06/29 05:35:20;;;;;;;11.93;8.52;;;18.60;99.90;;;;;;5021019;28;20699;-67
2021/06/29 05:37:48;;;;;;;11.25;8.02;;;18.60;99.90;;;;;;4992027;28;20084;-67
2021/06/29 05:40:15;;;;;;;14.27;9.43;;;18.70;99.90;;;;;;4995392;28;20428;-67
2021/06/29 05:42:42;;;;;;;12.25;7.22;;;18.80;99.90;;;;;;5057703;28;20048;-67
2021/06/29 05:45:13;;;;;;;11.57;7.90;;;18.90;99.90;;;;;;5041475;28;20148;-67
2021/06/29 05:47:40;;;;;;;13.95;7.68;;;18.80;99.90;;;;;;4999820;28;20064;-67
2021/06/29 05:50:11;;;;;;;12.93;7.93;;;18.80;99.90;;;;;;5006854;28;20053;-66
2021/06/29 05:52:38;;;;;;;13.35;8.38;;;18.90;99.90;;;;;;5004864;28;20541;-66
2021/06/29 05:55:08;;;;;;;12.23;7.95;;;19.00;99.90;;;;;;5006675;28;20077;-66
2021/06/29 05:57:36;;;;;;;10.82;7.13;;;19.00;99.90;;;;;;5011733;28;20556;-67
2021/06/29 06:00:05;;;;;;;9.93;7.70;;;18.70;99.90;;;;;;5032741;28;20059;-66
2021/06/29 06:02:32;;;;;;;14.50;8.00;;;18.80;99.90;;;;;;5010233;28;20087;-66
2021/06/29 06:04:59;;;;;;;11.65;7.40;;;18.80;99.90;;;;;;5002416;28;20093;-66
2021/06/29 06:07:26;;;;;;;12.05;7.85;;;18.80;99.90;;;;;;5008604;28;20166;-66
2021/06/29 06:09:53;;;;;;;17.30;8.50;;;18.80;99.90;;;;;;5031985;28;20121;-68
2021/06/29 06:12:21;;;;;;;10.55;6.70;;;18.90;99.90;;;;;;5053423;28;20126;-66
2021/06/29 06:14:49;;;;;;;11.80;8.18;;;19.00;99.90;;;;;;5028754;28;20601;-67
2021/06/29 06:17:16;;;;;;;9.20;7.05;;;19.00;99.90;;;;;;5020917;28;20920;-66
2021/06/29 06:19:43;;;;;;;13.32;6.72;;;19.10;99.90;;;;;;5007294;28;20268;-67
2021/06/29 06:22:10;;;;;;;9.35;5.80;;;19.10;99.90;;;;;;5015707;28;20568;-66
2021/06/29 06:24:37;;;;;;;7.65;5.45;;;19.10;99.90;;;;;;5058853;28;20049;-66
2021/06/29 06:27:07;;;;;;;10.65;6.32;;;19.10;99.90;;;;;;5063201;28;20139;-65
2021/06/29 06:29:36;;;;;;;10.20;7.03;;;19.10;99.90;;;;;;5060284;28;20147;-66
2021/06/29 06:32:03;;;;;;;11.23;6.70;;;19.20;99.90;;;;;;5060054;28;20091;-66
2021/06/29 06:34:30;;;;;;;9.95;6.68;;;19.20;99.90;;;;;;5065896;28;20475;-67
2021/06/29 06:36:57;;;;;;;9.93;6.80;;;19.30;99.90;;;;;;5069950;28;20044;-66
2021/06/29 06:39:24;;;;;;;12.35;6.55;;;19.30;99.90;;;;;;5072346;28;20049;-67
2021/06/29 06:41:50;;;;;;;10.65;7.05;;;19.30;99.90;;;;;;5067822;28;20481;-67
2021/06/29 06:44:17;;;;;;;12.48;7.38;;;19.30;99.90;;;;;;5031454;28;20493;-67
2021/06/29 06:46:46;;;;;;;11.60;7.50;;;19.40;99.90;;;;;;5031893;28;20853;-67
2021/06/29 06:49:13;;;;;;;11.45;7.22;;;19.50;99.90;;;;;;5029898;28;20158;-67
2021/06/29 06:51:40;;;;;;;9.75;6.47;;;19.60;99.90;;;;;;5032199;28;20052;-67
2021/06/29 06:54:07;;;;;;;12.63;6.07;;;19.60;99.90;;;;;;5030730;28;20138;-67
2021/06/29 06:56:37;;;;;;;9.98;6.22;;;19.60;99.90;;;;;;5034482;28;20094;-67
2021/06/29 06:59:04;;;;;;;10.95;6.05;;;19.70;99.90;;;;;;5036779;28;20126;-67
2021/06/29 07:01:31;;;;;;;8.20;6.15;;;19.80;99.90;;;;;;5069506;28;20148;-66
2021/06/29 07:03:59;;;;;;;8.70;5.22;;;19.90;99.90;;;;;;5071096;28;20503;-66
2021/06/29 07:06:26;;;;;;;8.23;6.40;;;19.90;99.90;;;;;;5051807;28;20172;-67
2021/06/29 07:08:53;;;;;;;10.50;6.78;;;19.90;99.90;;;;;;5029308;28;20044;-67
2021/06/29 07:11:20;;;;;;;9.38;6.38;;;19.90;99.90;;;;;;5025948;28;20712;-67
2021/06/29 07:13:47;;;;;;;9.60;5.43;;;20.00;99.90;;;;;;5027337;28;20139;-67
2021/06/29 07:16:14;;;;;;;10.68;6.50;;;20.10;99.90;;;;;;5024173;28;20710;-67
2021/06/29 07:18:41;;;;;;;8.10;6.05;;;20.30;99.90;;;;;;5024010;28;20117;-67
2021/06/29 07:21:10;;;;;;;8.60;5.97;;;20.50;99.90;;;;;;5066958;28;20125;-67
2021/06/29 07:23:37;;;;;;;8.90;5.20;;;20.70;99.90;;;;;;5065682;28;20049;-66
2021/06/29 07:26:05;;;;;;;10.07;6.05;;;21.10;99.90;;;;;;5036734;28;20292;-67
2021/06/29 07:28:32;;;;;;;7.45;4.82;;;21.00;99.90;;;;;;5022678;28;20537;-66
2021/06/29 07:30:59;;;;;;;9.02;5.60;;;21.20;99.90;;;;;;5016610;28;21313;-67
2021/06/29 07:33:28;;;;;;;7.25;5.15;;;21.30;99.90;;;;;;5019433;28;20607;-67
2021/06/29 07:35:55;;;;;;;7.57;5.22;;;21.20;99.90;;;;;;5015972;28;20425;-67
2021/06/29 07:38:24;;;;;;;6.95;4.50;;;21.10;99.90;;;;;;5031074;28;20444;-67
2021/06/29 07:40:51;;;;;;;11.85;5.65;;;21.00;99.90;;;;;;5006296;28;20078;-67
2021/06/29 07:43:19;;;;;;;6.63;4.80;;;21.00;99.90;;;;;;5007273;28;20563;-67
2021/06/29 07:45:46;;;;;;;8.32;5.82;;;21.00;99.90;;;;;;4989840;28;20607;-67
2021/06/29 07:48:13;;;;;;;8.02;4.88;;;21.00;99.90;;;;;;4987197;28;20047;-67
2021/06/29 07:50:41;;;;;;;13.73;4.93;;;21.20;99.90;;;;;;5008312;28;21033;-67
2021/06/29 07:53:08;;;;;;;8.82;4.97;;;21.60;99.90;;;;;;5002564;28;20432;-67
2021/06/29 07:55:36;;;;;;;7.90;4.88;;;21.90;99.90;;;;;;5012606;28;20158;-67
2021/06/29 07:58:03;;;;;;;9.50;5.20;;;22.00;99.90;;;;;;5042783;28;20080;-67
2021/06/29 08:00:30;;;;;;;6.63;4.75;;;22.20;99.90;;;;;;5014079;28;20330;-67
2021/06/29 08:02:59;;;;;;;6.63;4.18;;;22.30;99.90;;;;;;4997752;28;20052;-68
2021/06/29 08:05:26;;;;;;;8.93;4.80;;;22.10;99.90;;;;;;5020287;28;20052;-67
2021/06/29 08:07:53;;;;;;;7.13;4.40;;;22.10;99.90;;;;;;5014323;28;20515;-68
2021/06/29 08:10:20;;;;;;;7.03;4.57;;;22.20;99.90;;;;;;5027227;28;20129;-67
2021/06/29 08:12:49;;;;;;;8.48;4.30;;;22.10;99.90;;;;;;5060037;28;20135;-67
2021/06/29 08:15:16;;;;;;;8.18;4.75;;;22.20;99.90;;;;;;5063819;28;20101;-67
2021/06/29 08:17:43;;;;;;;9.40;4.55;;;22.50;99.90;;;;;;5059318;28;20579;-67
2021/06/29 08:20:12;;;;;;;8.20;5.00;;;22.50;99.90;;;;;;5062236;28;20135;-67
2021/06/29 08:22:39;;;;;;;9.65;5.15;;;22.70;99.90;;;;;;5065384;28;20144;-67
2021/06/29 08:25:08;;;;;;;55.88;9.57;;;22.80;99.90;;;;;;5062655;28;20040;-67
2021/06/29 08:27:35;;;;;;;174.57;25.52;;;22.60;99.90;;;;;;5061572;28;20102;-67
2021/06/29 08:30:05;;;;;;;25.52;5.25;;;22.60;99.90;;;;;;5064179;28;20044;-67
2021/06/29 08:32:32;;;;;;;9.32;4.55;;;22.50;99.90;;;;;;5062389;28;20570;-67
2021/06/29 08:34:59;;;;;;;9.90;4.30;;;22.30;99.90;;;;;;5053764;28;20083;-67
2021/06/29 08:37:26;;;;;;;6.05;3.75;;;22.30;99.90;;;;;;5063323;28;20511;-67
2021/06/29 08:39:55;;;;;;;5.93;4.10;;;22.20;99.90;;;;;;5059973;28;20048;-67
2021/06/29 08:42:22;;;;;;;8.75;4.43;;;22.00;99.90;;;;;;5064308;28;20206;-67
2021/06/29 08:44:49;;;;;;;8.32;4.43;;;21.90;99.90;;;;;;5060921;28;20500;-67
2021/06/29 08:47:17;;;;;;;6.70;4.00;;;21.80;99.90;;;;;;5058765;28;20464;-67
2021/06/29 08:49:44;;;;;;;6.78;4.70;;;21.90;99.90;;;;;;5064534;28;20815;-67
2021/06/29 08:52:12;;;;;;;8.52;4.78;;;21.70;99.90;;;;;;5059993;28;20079;-67
2021/06/29 08:54:39;;;;;;;8.40;4.90;;;21.60;99.90;;;;;;5061278;28;20083;-67
2021/06/29 08:57:07;;;;;;;8.98;4.80;;;21.60;99.90;;;;;;5059587;28;20504;-67
2021/06/29 08:59:34;;;;;;;9.20;4.50;;;21.70;99.90;;;;;;5058269;28;20048;-67
2021/06/29 09:02:02;;;;;;;11.30;5.22;;;21.90;99.90;;;;;;5060067;28;20044;-67
2021/06/29 09:04:48;;;;;;;8.25;5.15;;;22.10;99.90;;;;;;5057845;28;20346;-66
2021/06/29 09:07:19;;;;;;;7.53;4.35;;;22.30;99.90;;;;;;5058856;28;20561;-66
2021/06/29 09:09:55;;;;;;;7.55;4.80;;;22.30;99.90;;;;;;5057665;28;20048;-66
2021/06/29 09:12:45;;;;;;;6.97;4.60;;;22.40;99.90;;;;;;5059090;28;20517;-66
2021/06/29 09:15:40;;;;;;;6.18;3.90;;;22.40;99.90;;;;;;5055846;28;20454;-66
2021/06/29 09:18:20;;;;;;;7.15;4.40;;;22.70;99.90;;;;;;5057430;28;20628;-66
2021/06/29 09:20:52;;;;;;;6.45;4.03;;;23.40;99.90;;;;;;5055817;28;20580;-66
2021/06/29 09:23:21;;;;;;;6.80;3.92;;;23.90;99.90;;;;;;5054056;28;20658;-66
2021/06/29 09:25:50;;;;;;;5.63;3.78;;;24.40;99.90;;;;;;5055426;28;20350;-66
2021/06/29 09:28:19;;;;;;;6.03;3.15;;;24.80;99.90;;;;;;5055902;28;20140;-66
2021/06/29 09:30:48;;;;;;;6.75;3.45;;;25.10;99.90;;;;;;5050285;28;20127;-66
2021/06/29 09:33:18;;;;;;;5.28;3.35;;;26.00;99.90;;;;;;5056338;28;20136;-66
2021/06/29 09:35:47;;;;;;;4.22;2.75;;;27.00;99.90;;;;;;5055317;28;20185;-66
2021/06/29 09:38:22;;;;;;;7.35;3.28;;;28.10;99.90;;;;;;5053787;28;20402;-66
2021/06/29 09:40:59;;;;;;;5.68;3.10;;;28.00;99.90;;;;;;5057062;28;20067;-66
2021/06/29 09:43:28;;;;;;;12.18;3.17;;;27.20;99.90;;;;;;5054458;28;20060;-66
2021/06/29 09:45:59;;;;;;;5.43;3.10;;;26.50;99.90;;;;;;5045885;28;20410;-66
2021/06/29 09:48:46;;;;;;;5.13;3.50;;;26.00;99.90;;;;;;5053246;28;20047;-66
2021/06/29 09:51:16;;;;;;;6.28;3.42;;;25.30;99.90;;;;;;5060285;28;20505;-66
2021/06/29 09:53:47;;;;;;;6.63;3.40;;;25.50;99.90;;;;;;5061246;28;20417;-66
2021/06/29 09:56:16;;;;;;;4.43;2.95;;;26.30;99.90;;;;;;5060548;28;21010;-66
2021/06/29 09:58:47;;;;;;;6.47;3.20;;;26.70;99.90;;;;;;5065851;28;20172;-66
2021/06/29 10:01:19;;;;;;;6.63;3.50;;;26.30;99.90;;;;;;5066336;28;20056;-66
2021/06/29 10:03:50;;;;;;;3.58;2.60;;;26.20;99.90;;;;;;5064226;28;20051;-66
2021/06/29 10:06:19;;;;;;;8.00;2.40;;;26.50;99.90;;;;;;5062279;28;20052;-67
2021/06/29 10:08:50;;;;;;;8.30;2.60;;;27.20;99.90;;;;;;5061881;28;20531;-66
2021/06/29 10:11:20;;;;;;;3.20;2.10;;;28.00;99.90;;;;;;5063882;28;20083;-66
2021/06/29 10:13:51;;;;;;;3.90;2.00;;;29.20;99.90;;;;;;5061792;28;20135;-66
2021/06/29 10:16:21;;;;;;;2.75;2.10;;;29.80;99.90;;;;;;5063086;28;20602;-66
2021/06/29 10:18:53;;;;;;;4.65;2.33;;;29.90;99.90;;;;;;5061431;28;20063;-66
2021/06/29 10:21:23;;;;;;;5.00;2.30;;;30.30;99.90;;;;;;5054891;28;20052;-66
2021/06/29 10:23:57;;;;;;;4.57;2.78;;;30.50;99.90;;;;;;5052561;28;20086;-66
2021/06/29 10:26:25;;;;;;;4.28;2.15;;;30.80;99.90;;;;;;5051867;28;20112;-65
2021/06/29 10:28:54;;;;;;;4.35;2.17;;;30.70;99.90;;;;;;5045214;28;20492;-63
2021/06/29 10:31:23;;;;;;;4.07;2.10;;;31.20;99.90;;;;;;5043959;28;20044;-64
2021/06/29 10:33:52;;;;;;;3.25;1.98;;;31.40;99.90;;;;;;5054509;28;20140;-64
2021/06/29 10:36:20;;;;;;;3.22;1.67;;;31.70;99.90;;;;;;5059870;28;20059;-64
2021/06/29 10:38:48;;;;;;;4.07;1.80;;;31.20;99.90;;;;;;5049733;28;20048;-64
2021/06/29 10:41:17;;;;;;;5.85;2.40;;;31.50;99.90;;;;;;5050659;28;20407;-64
2021/06/29 10:43:45;;;;;;;5.97;2.55;;;32.10;99.90;;;;;;5053615;28;21026;-65
2021/06/29 10:46:34;;;;;;;4.13;2.10;;;32.50;99.90;;;;;;5051478;28;20097;-64
2021/06/29 10:49:35;;;;;;;3.92;2.10;;;32.50;99.90;;;;;;5054243;28;20132;-65
2021/06/29 10:52:05;;;;;;;3.88;2.35;;;32.20;99.90;;;;;;5056154;28;20422;-64
2021/06/29 10:54:41;;;;;;;6.93;2.60;;;33.00;99.90;;;;;;5052256;28;20458;-65
2021/06/29 10:57:11;;;;;;;;;;;32.80;99.90;;;;;;5057721;28;20112;-65
2021/06/29 10:59:40;;;;;;;5.93;2.47;;;32.10;99.90;;;;;;5056591;28;19924;-64
2021/06/29 11:02:10;;;;;;;3.78;2.42;;;32.70;99.90;;;;;;5059486;28;20560;-65
2021/06/29 11:04:52;;;;;;;5.38;2.90;;;33.40;99.90;;;;;;5061542;28;20053;-64
2021/06/29 11:07:43;;;;;;;4.88;2.42;;;32.70;99.90;;;;;;5035033;28;20051;-65
2021/06/29 11:10:13;;;;;;;3.58;2.28;;;33.20;99.90;;;;;;5048036;28;20606;-65
2021/06/29 11:12:50;;;;;;;4.25;2.50;;;33.80;99.90;;;;;;5043772;28;20062;-65
2021/06/29 11:15:18;;;;;;;4.35;2.15;;;33.60;99.90;;;;;;5042493;28;20053;-65
2021/06/29 11:17:59;;;;;;;5.07;2.30;;;33.30;99.90;;;;;;5036367;28;20267;-65
2021/06/29 11:20:27;;;;;;;5.82;2.42;;;33.90;99.90;;;;;;5049441;28;20124;-65
2021/06/29 11:22:59;;;;;;;3.15;2.15;;;33.50;99.90;;;;;;5047180;28;20106;-65
2021/06/29 11:25:35;;;;;;;2.80;2.10;;;33.20;99.90;;;;;;5046743;28;20043;-65
2021/06/29 11:28:06;;;;;;;3.15;2.30;;;33.90;99.90;;;;;;5047042;28;20556;-65
2021/06/29 11:30:52;;;;;;;3.67;2.47;;;34.40;99.90;;;;;;5052017;28;20040;-65
2021/06/29 11:33:43;;;;;;;;;;;33.20;99.90;;;;;;5036361;28;20523;-65
2021/06/29 11:36:41;;;;;;;7.78;2.50;;;32.20;99.90;;;;;;5043850;28;20449;-65
2021/06/29 11:39:26;;;;;;;4.35;2.30;;;33.60;99.90;;;;;;5041942;28;20289;-65
2021/06/29 11:41:55;;;;;;;4.85;2.38;;;33.90;99.90;;;;;;5047365;28;20546;-64
2021/06/29 11:44:44;;;;;;;2.97;2.25;;;34.60;99.90;;;;;;5047845;28;20601;-65
2021/06/29 11:47:13;;;;;;;6.47;2.50;;;34.20;99.90;;;;;;5045360;28;20102;-65
2021/06/29 11:49:44;;;;;;;4.20;2.25;;;35.00;99.90;;;;;;5046423;28;20067;-65
2021/06/29 11:52:36;;;;;;;4.25;2.35;;;34.80;99.90;;;;;;5050364;28;20151;-65
2021/06/29 11:55:16;;;;;;;4.63;2.45;;;35.40;99.90;;;;;;5034917;28;20052;-65
2021/06/29 11:57:46;;;;;;;3.53;2.30;;;35.80;99.90;;;;;;5052457;28;20059;-65
2021/06/29 12:00:31;;;;;;;3.20;2.33;;;35.50;99.90;;;;;;5038276;28;20079;-64
2021/06/29 12:02:59;;;;;;;3.50;2.28;;;34.90;99.90;;;;;;5050544;28;20078;-64
2021/06/29 12:05:28;;;;;;;4.53;2.35;;;35.70;99.90;;;;;;5040075;28;20412;-65
2021/06/29 12:07:56;;;;;;;3.83;2.10;;;36.00;99.90;;;;;;5045738;28;20056;-64
2021/06/29 12:10:25;;;;;;;3.38;2.50;;;34.70;99.90;;;;;;5061923;28;20049;-64
2021/06/29 12:12:53;;;;;;;5.13;2.60;;;34.60;97.70;;;;;;5054815;28;20052;-65
2021/06/29 12:15:23;;;;;;;3.88;2.20;;;34.70;99.30;;;;;;5063870;28;20230;-65
2021/06/29 12:17:58;;;;;;;2.50;1.77;;;35.30;99.60;;;;;;5051116;28;20121;-65
2021/06/29 12:20:28;;;;;;;4.65;2.38;;;34.70;97.90;;;;;;5050998;28;21625;-64
2021/06/29 12:22:56;;;;;;;3.53;2.10;;;35.30;97.10;;;;;;5059668;28;20528;-64
2021/06/29 12:25:27;;;;;;;5.03;2.00;;;36.00;96.30;;;;;;5063539;28;20054;-64
2021/06/29 12:27:56;;;;;;;6.25;2.38;;;36.30;94.90;;;;;;5061287;28;20383;-64
2021/06/29 12:30:34;;;;;;;3.55;2.22;;;36.20;97.30;;;;;;5061491;28;20093;-65
2021/06/29 12:33:15;;;;;;;2.42;1.90;;;35.20;96.30;;;;;;5061035;28;20052;-64
2021/06/29 12:35:43;;;;;;;4.20;2.35;;;34.20;95.30;;;;;;5063832;28;20478;-64
2021/06/29 12:38:13;;;;;;;3.75;2.03;;;34.00;94.20;;;;;;5059702;28;20517;-64
2021/06/29 12:40:41;;;;;;;4.43;2.33;;;33.80;94.50;;;;;;5061836;28;20145;-64
2021/06/29 12:43:32;;;;;;;3.42;2.17;;;33.80;96.30;;;;;;5062819;28;20099;-64
2021/06/29 12:46:21;;;;;;;3.08;1.92;;;33.20;98.00;;;;;;5060680;28;20052;-64
2021/06/29 12:49:00;;;;;;;5.15;2.08;;;33.80;97.10;;;;;;5050562;28;20090;-64
2021/06/29 12:51:28;;;;;;;4.22;2.47;;;34.20;95.70;;;;;;5045241;28;20060;-64
2021/06/29 12:53:56;;;;;;;3.85;1.88;;;33.20;96.00;;;;;;5048008;28;20326;-64
2021/06/29 12:56:31;;;;;;;2.65;1.77;;;33.70;96.20;;;;;;5046678;28;20273;-64